sensor_id;sensor_type;location;lat;lon;timestamp;temperature;humidity
31675;DHT22;18276;45.520;11.018;2022-11-20T00:00:54;8.80;90.20
31675;DHT22;18276;45.520;11.018;2022-11-20T00:03:21;8.80;90.30
31675;DHT22;18276;45.520;11.018;2022-11-20T00:05:48;8.70;90.40
31675;DHT22;18276;45.520;11.018;2022-11-20T00:08:15;8.70;90.60
31675;DHT22;18276;45.520;11.018;2022-11-20T00:10:42;8.60;90.70
31675;DHT22;18276;45.520;11.018;2022-11-20T00:13:09;8.60;90.70
31675;DHT22;18276;45.520;11.018;2022-11-20T00:15:36;8.60;90.80
31675;DHT22;18276;45.520;11.018;2022-11-20T00:18:03;8.60;90.80
31675;DHT22;18276;45.520;11.018;2022-11-20T00:20:30;8.60;90.80
31675;DHT22;18276;45.520;11.018;2022-11-20T00:22:57;8.60;90.80
31675;DHT22;18276;45.520;11.018;2022-11-20T00:25:24;8.50;90.80
31675;DHT22;18276;45.520;11.018;2022-11-20T00:27:51;8.50;90.90
31675;DHT22;18276;45.520;11.018;2022-11-20T00:30:18;8.50;90.90
31675;DHT22;18276;45.520;11.018;2022-11-20T00:32:45;8.50;90.90
31675;DHT22;18276;45.520;11.018;2022-11-20T00:35:12;8.50;90.90
31675;DHT22;18276;45.520;11.018;2022-11-20T00:37:39;8.40;90.90
31675;DHT22;18276;45.520;11.018;2022-11-20T00:40:07;8.40;91.00
31675;DHT22;18276;45.520;11.018;2022-11-20T00:42:34;8.40;91.00
31675;DHT22;18276;45.520;11.018;2022-11-20T00:45:01;8.40;91.00
31675;DHT22;18276;45.520;11.018;2022-11-20T00:47:28;8.40;91.00
31675;DHT22;18276;45.520;11.018;2022-11-20T00:49:55;8.40;91.40
31675;DHT22;18276;45.520;11.018;2022-11-20T00:52:22;8.30;91.00
31675;DHT22;18276;45.520;11.018;2022-11-20T00:54:49;8.30;91.10
31675;DHT22;18276;45.520;11.018;2022-11-20T00:57:16;8.30;91.10
31675;DHT22;18276;45.520;11.018;2022-11-20T00:59:43;8.30;91.10
31675;DHT22;18276;45.520;11.018;2022-11-20T01:02:10;8.20;91.10
31675;DHT22;18276;45.520;11.018;2022-11-20T01:04:37;8.30;91.10
31675;DHT22;18276;45.520;11.018;2022-11-20T01:07:04;8.20;91.20
31675;DHT22;18276;45.520;11.018;2022-11-20T01:09:31;8.20;91.20
31675;DHT22;18276;45.520;11.018;2022-11-20T01:11:58;8.20;91.10
31675;DHT22;18276;45.520;11.018;2022-11-20T01:14:25;8.20;91.10
31675;DHT22;18276;45.520;11.018;2022-11-20T01:16:52;8.20;91.10
31675;DHT22;18276;45.520;11.018;2022-11-20T01:19:22;8.20;91.00
31675;DHT22;18276;45.520;11.018;2022-11-20T01:21:52;8.20;91.00
31675;DHT22;18276;45.520;11.018;2022-11-20T01:24:21;8.20;91.00
31675;DHT22;18276;45.520;11.018;2022-11-20T01:26:50;8.10;91.00
31675;DHT22;18276;45.520;11.018;2022-11-20T01:29:27;8.10;91.00
31675;DHT22;18276;45.520;11.018;2022-11-20T01:31:54;8.10;91.00
31675;DHT22;18276;45.520;11.018;2022-11-20T01:34:21;8.10;91.00
31675;DHT22;18276;45.520;11.018;2022-11-20T01:36:50;8.10;90.90
31675;DHT22;18276;45.520;11.018;2022-11-20T01:39:26;8.10;90.80
31675;DHT22;18276;45.520;11.018;2022-11-20T01:41:54;8.10;90.80
31675;DHT22;18276;45.520;11.018;2022-11-20T01:44:58;8.10;90.80
31675;DHT22;18276;45.520;11.018;2022-11-20T01:47:32;8.00;90.70
31675;DHT22;18276;45.520;11.018;2022-11-20T01:50:25;8.00;90.80
31675;DHT22;18276;45.520;11.018;2022-11-20T01:52:57;8.00;90.80
31675;DHT22;18276;45.520;11.018;2022-11-20T01:55:37;7.90;90.70
31675;DHT22;18276;45.520;11.018;2022-11-20T01:58:05;7.90;90.60
31675;DHT22;18276;45.520;11.018;2022-11-20T02:00:32;7.90;90.50
31675;DHT22;18276;45.520;11.018;2022-11-20T02:03:06;7.90;90.40
31675;DHT22;18276;45.520;11.018;2022-11-20T02:08:39;8.00;90.30
31675;DHT22;18276;45.520;11.018;2022-11-20T02:11:06;7.90;90.10
31675;DHT22;18276;45.520;11.018;2022-11-20T02:13:34;7.90;90.00
31675;DHT22;18276;45.520;11.018;2022-11-20T02:18:52;7.90;89.70
31675;DHT22;18276;45.520;11.018;2022-11-20T02:21:40;7.80;89.60
31675;DHT22;18276;45.520;11.018;2022-11-20T02:24:15;7.80;89.20
31675;DHT22;18276;45.520;11.018;2022-11-20T02:26:53;7.70;89.20
31675;DHT22;18276;45.520;11.018;2022-11-20T02:29:40;7.80;89.00
31675;DHT22;18276;45.520;11.018;2022-11-20T02:34:50;7.70;88.60
31675;DHT22;18276;45.520;11.018;2022-11-20T02:37:18;7.70;88.70
31675;DHT22;18276;45.520;11.018;2022-11-20T02:39:48;7.70;88.60
31675;DHT22;18276;45.520;11.018;2022-11-20T02:42:15;7.70;88.50
31675;DHT22;18276;45.520;11.018;2022-11-20T02:44:42;7.60;88.30
31675;DHT22;18276;45.520;11.018;2022-11-20T02:47:10;7.70;88.30
31675;DHT22;18276;45.520;11.018;2022-11-20T02:49:37;7.60;88.00
31675;DHT22;18276;45.520;11.018;2022-11-20T02:52:04;7.60;87.90
31675;DHT22;18276;45.520;11.018;2022-11-20T02:54:31;7.60;87.70
31675;DHT22;18276;45.520;11.018;2022-11-20T02:56:59;7.60;87.60
31675;DHT22;18276;45.520;11.018;2022-11-20T02:59:26;7.60;87.50
31675;DHT22;18276;45.520;11.018;2022-11-20T03:01:54;7.60;87.50
31675;DHT22;18276;45.520;11.018;2022-11-20T03:04:21;7.50;87.50
31675;DHT22;18276;45.520;11.018;2022-11-20T03:06:47;7.50;87.60
31675;DHT22;18276;45.520;11.018;2022-11-20T03:09:14;7.50;87.90
31675;DHT22;18276;45.520;11.018;2022-11-20T03:11:42;7.40;88.30
31675;DHT22;18276;45.520;11.018;2022-11-20T03:14:09;7.40;88.60
31675;DHT22;18276;45.520;11.018;2022-11-20T03:16:36;7.30;88.90
31675;DHT22;18276;45.520;11.018;2022-11-20T03:19:03;7.30;89.70
31675;DHT22;18276;45.520;11.018;2022-11-20T03:21:30;7.30;89.00
31675;DHT22;18276;45.520;11.018;2022-11-20T03:23:57;7.20;89.00
31675;DHT22;18276;45.520;11.018;2022-11-20T03:26:25;7.20;89.20
31675;DHT22;18276;45.520;11.018;2022-11-20T03:28:57;7.20;89.20
31675;DHT22;18276;45.520;11.018;2022-11-20T03:31:35;7.20;88.80
31675;DHT22;18276;45.520;11.018;2022-11-20T03:34:03;7.20;88.40
31675;DHT22;18276;45.520;11.018;2022-11-20T03:36:31;7.20;88.20
31675;DHT22;18276;45.520;11.018;2022-11-20T03:38:58;7.20;88.20
31675;DHT22;18276;45.520;11.018;2022-11-20T03:41:28;7.10;88.20
31675;DHT22;18276;45.520;11.018;2022-11-20T03:44:00;7.10;88.20
31675;DHT22;18276;45.520;11.018;2022-11-20T03:46:28;7.10;88.10
31675;DHT22;18276;45.520;11.018;2022-11-20T03:48:56;7.00;88.00
31675;DHT22;18276;45.520;11.018;2022-11-20T03:51:28;7.00;87.90
31675;DHT22;18276;45.520;11.018;2022-11-20T03:53:58;7.00;87.80
31675;DHT22;18276;45.520;11.018;2022-11-20T03:56:30;7.00;87.80
31675;DHT22;18276;45.520;11.018;2022-11-20T03:58:58;7.00;87.80
31675;DHT22;18276;45.520;11.018;2022-11-20T04:01:31;6.90;87.60
31675;DHT22;18276;45.520;11.018;2022-11-20T04:04:00;6.90;87.30
31675;DHT22;18276;45.520;11.018;2022-11-20T04:06:33;6.90;87.10
31675;DHT22;18276;45.520;11.018;2022-11-20T04:09:00;6.90;86.60
31675;DHT22;18276;45.520;11.018;2022-11-20T04:11:30;6.90;86.50
31675;DHT22;18276;45.520;11.018;2022-11-20T04:13:59;6.90;86.30
31675;DHT22;18276;45.520;11.018;2022-11-20T04:16:33;6.80;86.20
31675;DHT22;18276;45.520;11.018;2022-11-20T04:19:03;6.80;86.50
31675;DHT22;18276;45.520;11.018;2022-11-20T04:21:31;6.80;86.70
31675;DHT22;18276;45.520;11.018;2022-11-20T04:23:58;6.70;87.10
31675;DHT22;18276;45.520;11.018;2022-11-20T04:26:26;6.60;87.30
31675;DHT22;18276;45.520;11.018;2022-11-20T04:28:54;6.60;87.40
31675;DHT22;18276;45.520;11.018;2022-11-20T04:31:24;6.60;87.40
31675;DHT22;18276;45.520;11.018;2022-11-20T04:33:52;6.60;87.20
31675;DHT22;18276;45.520;11.018;2022-11-20T04:36:24;6.60;87.10
31675;DHT22;18276;45.520;11.018;2022-11-20T04:38:59;6.60;87.00
31675;DHT22;18276;45.520;11.018;2022-11-20T04:41:29;6.70;86.80
31675;DHT22;18276;45.520;11.018;2022-11-20T04:43:58;6.60;87.30
31675;DHT22;18276;45.520;11.018;2022-11-20T04:46:30;6.60;86.50
31675;DHT22;18276;45.520;11.018;2022-11-20T04:48:58;6.60;86.70
31675;DHT22;18276;45.520;11.018;2022-11-20T04:51:26;6.60;86.80
31675;DHT22;18276;45.520;11.018;2022-11-20T04:53:54;6.60;86.80
31675;DHT22;18276;45.520;11.018;2022-11-20T04:56:22;6.60;86.80
31675;DHT22;18276;45.520;11.018;2022-11-20T04:58:49;6.50;87.00
31675;DHT22;18276;45.520;11.018;2022-11-20T05:01:19;6.50;87.20
31675;DHT22;18276;45.520;11.018;2022-11-20T05:03:46;6.50;87.10
31675;DHT22;18276;45.520;11.018;2022-11-20T05:06:15;6.50;87.00
31675;DHT22;18276;45.520;11.018;2022-11-20T05:08:43;6.50;87.00
31675;DHT22;18276;45.520;11.018;2022-11-20T05:11:12;6.50;87.20
31675;DHT22;18276;45.520;11.018;2022-11-20T05:13:40;6.50;87.50
31675;DHT22;18276;45.520;11.018;2022-11-20T05:16:13;6.40;87.80
31675;DHT22;18276;45.520;11.018;2022-11-20T05:18:40;6.40;88.00
31675;DHT22;18276;45.520;11.018;2022-11-20T05:21:10;6.40;88.00
31675;DHT22;18276;45.520;11.018;2022-11-20T05:23:38;6.40;88.00
31675;DHT22;18276;45.520;11.018;2022-11-20T05:26:07;6.40;88.10
31675;DHT22;18276;45.520;11.018;2022-11-20T05:28:34;6.40;88.30
31675;DHT22;18276;45.520;11.018;2022-11-20T05:31:06;6.40;88.50
31675;DHT22;18276;45.520;11.018;2022-11-20T05:33:35;6.40;88.70
31675;DHT22;18276;45.520;11.018;2022-11-20T05:36:05;6.40;88.80
31675;DHT22;18276;45.520;11.018;2022-11-20T05:38:33;6.40;89.00
31675;DHT22;18276;45.520;11.018;2022-11-20T05:41:05;6.40;89.10
31675;DHT22;18276;45.520;11.018;2022-11-20T05:43:37;6.40;89.20
31675;DHT22;18276;45.520;11.018;2022-11-20T05:46:06;6.40;89.20
31675;DHT22;18276;45.520;11.018;2022-11-20T05:48:36;6.40;89.40
31675;DHT22;18276;45.520;11.018;2022-11-20T05:51:04;6.40;89.60
31675;DHT22;18276;45.520;11.018;2022-11-20T05:53:32;6.40;89.70
31675;DHT22;18276;45.520;11.018;2022-11-20T05:56:05;6.40;89.80
31675;DHT22;18276;45.520;11.018;2022-11-20T05:58:33;6.50;89.70
31675;DHT22;18276;45.520;11.018;2022-11-20T06:01:09;6.50;89.70
31675;DHT22;18276;45.520;11.018;2022-11-20T06:03:37;6.50;89.70
31675;DHT22;18276;45.520;11.018;2022-11-20T06:06:06;6.50;89.80
31675;DHT22;18276;45.520;11.018;2022-11-20T06:08:33;6.50;89.90
31675;DHT22;18276;45.520;11.018;2022-11-20T06:11:08;6.60;90.00
31675;DHT22;18276;45.520;11.018;2022-11-20T06:13:36;6.60;90.10
31675;DHT22;18276;45.520;11.018;2022-11-20T06:16:08;6.60;90.10
31675;DHT22;18276;45.520;11.018;2022-11-20T06:18:36;6.60;90.20
31675;DHT22;18276;45.520;11.018;2022-11-20T06:23:32;6.60;90.20
31675;DHT22;18276;45.520;11.018;2022-11-20T06:26:09;6.60;90.30
31675;DHT22;18276;45.520;11.018;2022-11-20T06:28:36;6.60;90.30
31675;DHT22;18276;45.520;11.018;2022-11-20T06:31:03;6.60;90.30
31675;DHT22;18276;45.520;11.018;2022-11-20T06:33:32;6.60;90.40
31675;DHT22;18276;45.520;11.018;2022-11-20T06:36:00;6.70;90.40
31675;DHT22;18276;45.520;11.018;2022-11-20T06:38:33;6.60;90.50
31675;DHT22;18276;45.520;11.018;2022-11-20T06:41:00;6.70;90.50
31675;DHT22;18276;45.520;11.018;2022-11-20T06:43:29;6.70;90.50
31675;DHT22;18276;45.520;11.018;2022-11-20T06:45:57;6.70;90.50
31675;DHT22;18276;45.520;11.018;2022-11-20T06:48:28;6.80;90.50
31675;DHT22;18276;45.520;11.018;2022-11-20T06:50:56;6.80;90.50
31675;DHT22;18276;45.520;11.018;2022-11-20T06:53:24;6.80;90.50
31675;DHT22;18276;45.520;11.018;2022-11-20T06:55:51;6.90;90.80
31675;DHT22;18276;45.520;11.018;2022-11-20T06:58:19;6.90;90.40
31675;DHT22;18276;45.520;11.018;2022-11-20T07:00:47;7.00;90.40
31675;DHT22;18276;45.520;11.018;2022-11-20T07:03:14;7.00;90.30
31675;DHT22;18276;45.520;11.018;2022-11-20T07:05:41;7.10;90.20
31675;DHT22;18276;45.520;11.018;2022-11-20T07:08:08;7.20;90.30
31675;DHT22;18276;45.520;11.018;2022-11-20T07:10:36;7.70;90.90
31675;DHT22;18276;45.520;11.018;2022-11-20T07:13:03;9.00;90.40
31675;DHT22;18276;45.520;11.018;2022-11-20T07:15:30;10.30;87.10
31675;DHT22;18276;45.520;11.018;2022-11-20T07:17:59;11.30;83.60
31675;DHT22;18276;45.520;11.018;2022-11-20T07:20:26;12.30;81.10
31675;DHT22;18276;45.520;11.018;2022-11-20T07:22:55;13.30;78.50
31675;DHT22;18276;45.520;11.018;2022-11-20T07:25:24;14.40;74.70
31675;DHT22;18276;45.520;11.018;2022-11-20T07:27:51;15.40;70.40
31675;DHT22;18276;45.520;11.018;2022-11-20T07:30:19;16.40;67.00
31675;DHT22;18276;45.520;11.018;2022-11-20T07:32:47;17.30;63.10
31675;DHT22;18276;45.520;11.018;2022-11-20T07:35:18;18.10;59.40
31675;DHT22;18276;45.520;11.018;2022-11-20T07:37:46;18.80;57.10
31675;DHT22;18276;45.520;11.018;2022-11-20T07:40:14;19.50;55.00
31675;DHT22;18276;45.520;11.018;2022-11-20T07:43:02;20.00;52.60
31675;DHT22;18276;45.520;11.018;2022-11-20T07:45:29;20.60;50.00
31675;DHT22;18276;45.520;11.018;2022-11-20T07:47:56;20.90;49.60
31675;DHT22;18276;45.520;11.018;2022-11-20T07:50:23;21.30;48.50
31675;DHT22;18276;45.520;11.018;2022-11-20T07:52:50;21.60;47.00
31675;DHT22;18276;45.520;11.018;2022-11-20T07:55:18;21.80;45.90
31675;DHT22;18276;45.520;11.018;2022-11-20T07:57:45;21.90;45.10
31675;DHT22;18276;45.520;11.018;2022-11-20T08:00:13;21.90;44.50
31675;DHT22;18276;45.520;11.018;2022-11-20T08:02:41;22.00;44.10
31675;DHT22;18276;45.520;11.018;2022-11-20T08:05:09;22.00;43.70
31675;DHT22;18276;45.520;11.018;2022-11-20T08:07:40;21.90;43.50
31675;DHT22;18276;45.520;11.018;2022-11-20T08:10:10;21.70;43.30
31675;DHT22;18276;45.520;11.018;2022-11-20T08:12:44;21.40;43.60
31675;DHT22;18276;45.520;11.018;2022-11-20T08:15:32;21.10;44.00
31675;DHT22;18276;45.520;11.018;2022-11-20T08:20:49;20.50;45.90
31675;DHT22;18276;45.520;11.018;2022-11-20T08:23:16;20.10;47.00
31675;DHT22;18276;45.520;11.018;2022-11-20T08:25:43;19.60;47.70
31675;DHT22;18276;45.520;11.018;2022-11-20T08:28:15;19.30;48.60
31675;DHT22;18276;45.520;11.018;2022-11-20T08:30:48;19.10;49.10
31675;DHT22;18276;45.520;11.018;2022-11-20T08:33:15;18.80;50.10
31675;DHT22;18276;45.520;11.018;2022-11-20T08:35:44;18.60;51.00
31675;DHT22;18276;45.520;11.018;2022-11-20T08:38:11;18.50;51.80
31675;DHT22;18276;45.520;11.018;2022-11-20T08:40:38;18.60;52.00
31675;DHT22;18276;45.520;11.018;2022-11-20T08:43:05;18.70;51.70
31675;DHT22;18276;45.520;11.018;2022-11-20T08:45:32;18.80;51.90
31675;DHT22;18276;45.520;11.018;2022-11-20T08:48:04;18.90;52.10
31675;DHT22;18276;45.520;11.018;2022-11-20T08:50:31;18.80;52.30
31675;DHT22;18276;45.520;11.018;2022-11-20T08:53:06;18.70;53.30
31675;DHT22;18276;45.520;11.018;2022-11-20T08:55:33;18.80;53.40
31675;DHT22;18276;45.520;11.018;2022-11-20T08:58:06;18.80;53.80
31675;DHT22;18276;45.520;11.018;2022-11-20T09:00:34;18.90;53.70
31675;DHT22;18276;45.520;11.018;2022-11-20T09:03:01;19.20;53.60
31675;DHT22;18276;45.520;11.018;2022-11-20T09:05:28;19.60;53.10
31675;DHT22;18276;45.520;11.018;2022-11-20T09:07:59;19.90;52.30
31675;DHT22;18276;45.520;11.018;2022-11-20T09:10:27;20.40;51.30
31675;DHT22;18276;45.520;11.018;2022-11-20T09:12:54;20.80;50.30
31675;DHT22;18276;45.520;11.018;2022-11-20T09:15:24;21.50;49.60
31675;DHT22;18276;45.520;11.018;2022-11-20T09:17:54;22.20;48.10
31675;DHT22;18276;45.520;11.018;2022-11-20T09:20:22;22.60;46.30
31675;DHT22;18276;45.520;11.018;2022-11-20T09:22:49;22.50;45.10
31675;DHT22;18276;45.520;11.018;2022-11-20T09:25:16;22.50;44.70
31675;DHT22;18276;45.520;11.018;2022-11-20T09:27:43;22.70;44.90
31675;DHT22;18276;45.520;11.018;2022-11-20T09:30:14;22.90;43.50
31675;DHT22;18276;45.520;11.018;2022-11-20T09:32:42;22.90;43.20
31675;DHT22;18276;45.520;11.018;2022-11-20T09:35:10;23.00;42.70
31675;DHT22;18276;45.520;11.018;2022-11-20T09:37:37;23.30;42.90
31675;DHT22;18276;45.520;11.018;2022-11-20T09:40:05;23.70;42.30
31675;DHT22;18276;45.520;11.018;2022-11-20T09:55:52;26.40;34.50
31675;DHT22;18276;45.520;11.018;2022-11-20T09:58:27;26.50;33.90
31675;DHT22;18276;45.520;11.018;2022-11-20T10:01:00;26.70;32.40
31675;DHT22;18276;45.520;11.018;2022-11-20T10:03:57;26.70;32.30
31675;DHT22;18276;45.520;11.018;2022-11-20T10:06:37;27.00;30.90
31675;DHT22;18276;45.520;11.018;2022-11-20T10:17:19;26.20;29.90
31675;DHT22;18276;45.520;11.018;2022-11-20T10:31:34;28.20;28.30
31675;DHT22;18276;45.520;11.018;2022-11-20T10:34:08;28.30;28.80
31675;DHT22;18276;45.520;11.018;2022-11-20T10:39:35;28.80;27.80
31675;DHT22;18276;45.520;11.018;2022-11-20T10:42:11;28.80;27.90
31675;DHT22;18276;45.520;11.018;2022-11-20T10:44:49;28.70;28.20
31675;DHT22;18276;45.520;11.018;2022-11-20T10:47:31;28.80;28.60
31675;DHT22;18276;45.520;11.018;2022-11-20T10:50:03;28.50;28.40
31675;DHT22;18276;45.520;11.018;2022-11-20T10:52:53;28.30;28.10
31675;DHT22;18276;45.520;11.018;2022-11-20T11:00:16;29.00;28.70
31675;DHT22;18276;45.520;11.018;2022-11-20T11:02:53;29.50;28.00
31675;DHT22;18276;45.520;11.018;2022-11-20T11:07:55;30.50;28.10
31675;DHT22;18276;45.520;11.018;2022-11-20T11:10:27;31.00;27.00
31675;DHT22;18276;45.520;11.018;2022-11-20T11:12:55;30.70;26.40
31675;DHT22;18276;45.520;11.018;2022-11-20T11:17:54;29.20;27.40
31675;DHT22;18276;45.520;11.018;2022-11-20T11:20:23;29.10;27.80
31675;DHT22;18276;45.520;11.018;2022-11-20T11:22:55;29.40;28.30
31675;DHT22;18276;45.520;11.018;2022-11-20T11:27:54;30.10;27.50
31675;DHT22;18276;45.520;11.018;2022-11-20T11:30:24;30.10;27.50
31675;DHT22;18276;45.520;11.018;2022-11-20T11:33:06;30.50;27.70
31675;DHT22;18276;45.520;11.018;2022-11-20T11:35:33;30.60;26.70
31675;DHT22;18276;45.520;11.018;2022-11-20T11:38:10;30.20;27.20
31675;DHT22;18276;45.520;11.018;2022-11-20T11:40:40;30.50;27.60
31675;DHT22;18276;45.520;11.018;2022-11-20T11:43:18;30.70;27.30
31675;DHT22;18276;45.520;11.018;2022-11-20T11:54:04;29.50;28.40
31675;DHT22;18276;45.520;11.018;2022-11-20T11:56:33;29.80;28.30
31675;DHT22;18276;45.520;11.018;2022-11-20T11:59:04;30.10;28.00
31675;DHT22;18276;45.520;11.018;2022-11-20T12:04:19;29.20;28.00
31675;DHT22;18276;45.520;11.018;2022-11-20T12:06:50;28.50;28.20
31675;DHT22;18276;45.520;11.018;2022-11-20T12:09:18;27.90;29.10
31675;DHT22;18276;45.520;11.018;2022-11-20T12:11:55;27.70;29.50
31675;DHT22;18276;45.520;11.018;2022-11-20T12:14:35;28.00;29.50
31675;DHT22;18276;45.520;11.018;2022-11-20T12:17:05;27.50;29.00
31675;DHT22;18276;45.520;11.018;2022-11-20T12:19:33;27.40;29.70
31675;DHT22;18276;45.520;11.018;2022-11-20T12:22:11;27.40;29.50
31675;DHT22;18276;45.520;11.018;2022-11-20T12:30:19;28.90;29.60
31675;DHT22;18276;45.520;11.018;2022-11-20T12:47:12;27.30;30.00
31675;DHT22;18276;45.520;11.018;2022-11-20T12:53:31;26.90;31.90
31675;DHT22;18276;45.520;11.018;2022-11-20T12:58:36;27.20;30.80
31675;DHT22;18276;45.520;11.018;2022-11-20T13:01:26;27.30;31.20
31675;DHT22;18276;45.520;11.018;2022-11-20T13:04:34;27.30;31.10
31675;DHT22;18276;45.520;11.018;2022-11-20T13:06:56;27.10;31.40
31675;DHT22;18276;45.520;11.018;2022-11-20T13:09:23;26.90;31.00
31675;DHT22;18276;45.520;11.018;2022-11-20T13:12:11;26.70;31.40
31675;DHT22;18276;45.520;11.018;2022-11-20T13:19:57;27.40;32.80
31675;DHT22;18276;45.520;11.018;2022-11-20T13:22:41;26.20;32.60
31675;DHT22;18276;45.520;11.018;2022-11-20T13:27:58;24.80;35.80
31675;DHT22;18276;45.520;11.018;2022-11-20T13:30:27;24.90;35.90
31675;DHT22;18276;45.520;11.018;2022-11-20T13:32:57;25.30;35.60
31675;DHT22;18276;45.520;11.018;2022-11-20T13:35:32;24.60;36.00
31675;DHT22;18276;45.520;11.018;2022-11-20T13:38:11;23.80;37.60
31675;DHT22;18276;45.520;11.018;2022-11-20T13:41:00;23.40;39.10
31675;DHT22;18276;45.520;11.018;2022-11-20T13:43:48;23.20;40.60
31675;DHT22;18276;45.520;11.018;2022-11-20T13:46:15;22.70;41.80
31675;DHT22;18276;45.520;11.018;2022-11-20T13:48:46;22.50;42.50
31675;DHT22;18276;45.520;11.018;2022-11-20T13:51:35;22.50;43.00
31675;DHT22;18276;45.520;11.018;2022-11-20T13:57:33;22.70;43.70
31675;DHT22;18276;45.520;11.018;2022-11-20T14:00:14;23.00;43.30
31675;DHT22;18276;45.520;11.018;2022-11-20T14:02:44;23.10;43.40
31675;DHT22;18276;45.520;11.018;2022-11-20T14:05:22;23.00;43.40
31675;DHT22;18276;45.520;11.018;2022-11-20T14:07:52;23.00;43.90
31675;DHT22;18276;45.520;11.018;2022-11-20T14:10:27;23.20;43.50
31675;DHT22;18276;45.520;11.018;2022-11-20T14:13:09;23.10;43.40
31675;DHT22;18276;45.520;11.018;2022-11-20T14:15:36;22.90;43.90
31675;DHT22;18276;45.520;11.018;2022-11-20T14:18:14;22.50;44.10
31675;DHT22;18276;45.520;11.018;2022-11-20T14:20:42;22.20;45.60
31675;DHT22;18276;45.520;11.018;2022-11-20T14:23:10;21.80;45.50
31675;DHT22;18276;45.520;11.018;2022-11-20T14:25:42;21.50;46.10
31675;DHT22;18276;45.520;11.018;2022-11-20T14:28:21;21.00;46.70
31675;DHT22;18276;45.520;11.018;2022-11-20T14:30:50;20.40;47.50
31675;DHT22;18276;45.520;11.018;2022-11-20T14:33:18;19.50;48.70
31675;DHT22;18276;45.520;11.018;2022-11-20T14:35:54;18.60;50.00
31675;DHT22;18276;45.520;11.018;2022-11-20T14:38:25;17.90;51.60
31675;DHT22;18276;45.520;11.018;2022-11-20T14:40:53;17.20;53.10
31675;DHT22;18276;45.520;11.018;2022-11-20T14:43:26;16.70;54.10
31675;DHT22;18276;45.520;11.018;2022-11-20T14:45:59;16.20;55.60
31675;DHT22;18276;45.520;11.018;2022-11-20T14:51:02;15.50;57.60
31675;DHT22;18276;45.520;11.018;2022-11-20T14:53:29;15.10;58.40
31675;DHT22;18276;45.520;11.018;2022-11-20T14:56:01;14.80;59.30
31675;DHT22;18276;45.520;11.018;2022-11-20T14:58:31;14.60;60.20
31675;DHT22;18276;45.520;11.018;2022-11-20T15:03:40;14.20;62.10
31675;DHT22;18276;45.520;11.018;2022-11-20T15:06:11;14.00;63.60
31675;DHT22;18276;45.520;11.018;2022-11-20T15:08:38;13.70;64.00
31675;DHT22;18276;45.520;11.018;2022-11-20T15:11:17;13.60;64.80
31675;DHT22;18276;45.520;11.018;2022-11-20T15:13:46;13.40;66.10
31675;DHT22;18276;45.520;11.018;2022-11-20T15:16:18;13.20;66.20
31675;DHT22;18276;45.520;11.018;2022-11-20T15:18:46;13.10;67.10
31675;DHT22;18276;45.520;11.018;2022-11-20T15:21:16;12.90;67.40
31675;DHT22;18276;45.520;11.018;2022-11-20T15:23:44;12.80;68.10
31675;DHT22;18276;45.520;11.018;2022-11-20T15:26:14;12.70;68.60
31675;DHT22;18276;45.520;11.018;2022-11-20T15:28:47;12.50;69.20
31675;DHT22;18276;45.520;11.018;2022-11-20T15:31:21;12.40;69.70
31675;DHT22;18276;45.520;11.018;2022-11-20T15:33:49;12.30;70.30
31675;DHT22;18276;45.520;11.018;2022-11-20T15:36:16;12.10;70.70
31675;DHT22;18276;45.520;11.018;2022-11-20T15:38:44;12.00;71.30
31675;DHT22;18276;45.520;11.018;2022-11-20T15:41:11;11.80;71.90
31675;DHT22;18276;45.520;11.018;2022-11-20T15:43:38;11.70;72.30
31675;DHT22;18276;45.520;11.018;2022-11-20T15:46:09;11.60;72.90
31675;DHT22;18276;45.520;11.018;2022-11-20T15:48:38;11.50;73.50
31675;DHT22;18276;45.520;11.018;2022-11-20T15:51:26;11.30;73.80
31675;DHT22;18276;45.520;11.018;2022-11-20T15:53:55;11.20;74.70
31675;DHT22;18276;45.520;11.018;2022-11-20T15:56:22;11.10;74.80
31675;DHT22;18276;45.520;11.018;2022-11-20T15:58:49;11.00;75.20
31675;DHT22;18276;45.520;11.018;2022-11-20T16:01:21;10.90;75.40
31675;DHT22;18276;45.520;11.018;2022-11-20T16:03:48;10.80;75.80
31675;DHT22;18276;45.520;11.018;2022-11-20T16:06:16;10.70;76.00
31675;DHT22;18276;45.520;11.018;2022-11-20T16:08:43;10.60;76.40
31675;DHT22;18276;45.520;11.018;2022-11-20T16:11:15;10.50;77.00
31675;DHT22;18276;45.520;11.018;2022-11-20T16:13:43;10.50;77.50
31675;DHT22;18276;45.520;11.018;2022-11-20T16:16:42;10.40;77.70
31675;DHT22;18276;45.520;11.018;2022-11-20T16:19:13;10.30;77.70
31675;DHT22;18276;45.520;11.018;2022-11-20T16:21:41;10.30;78.10
31675;DHT22;18276;45.520;11.018;2022-11-20T16:24:10;10.30;78.20
31675;DHT22;18276;45.520;11.018;2022-11-20T16:26:38;10.30;78.40
31675;DHT22;18276;45.520;11.018;2022-11-20T16:29:06;10.30;78.50
31675;DHT22;18276;45.520;11.018;2022-11-20T16:31:34;10.30;78.60
31675;DHT22;18276;45.520;11.018;2022-11-20T16:34:05;10.30;78.80
31675;DHT22;18276;45.520;11.018;2022-11-20T16:36:42;10.30;78.90
31675;DHT22;18276;45.520;11.018;2022-11-20T16:39:11;10.20;79.10
31675;DHT22;18276;45.520;11.018;2022-11-20T16:41:38;10.20;79.20
31675;DHT22;18276;45.520;11.018;2022-11-20T16:44:10;10.20;79.50
31675;DHT22;18276;45.520;11.018;2022-11-20T16:46:37;10.10;79.80
31675;DHT22;18276;45.520;11.018;2022-11-20T16:49:12;10.00;80.00
31675;DHT22;18276;45.520;11.018;2022-11-20T16:51:39;10.00;80.40
31675;DHT22;18276;45.520;11.018;2022-11-20T16:54:08;9.90;80.50
31675;DHT22;18276;45.520;11.018;2022-11-20T16:56:35;9.80;80.70
31675;DHT22;18276;45.520;11.018;2022-11-20T16:59:03;9.80;81.00
31675;DHT22;18276;45.520;11.018;2022-11-20T17:01:30;9.80;81.20
31675;DHT22;18276;45.520;11.018;2022-11-20T17:04:00;9.70;81.40
31675;DHT22;18276;45.520;11.018;2022-11-20T17:06:29;9.70;81.60
31675;DHT22;18276;45.520;11.018;2022-11-20T17:08:57;9.60;82.00
31675;DHT22;18276;45.520;11.018;2022-11-20T17:11:26;9.50;82.20
31675;DHT22;18276;45.520;11.018;2022-11-20T17:13:57;9.50;82.70
31675;DHT22;18276;45.520;11.018;2022-11-20T17:16:26;9.40;83.10
31675;DHT22;18276;45.520;11.018;2022-11-20T17:18:55;9.30;83.10
31675;DHT22;18276;45.520;11.018;2022-11-20T17:21:29;9.30;83.30
31675;DHT22;18276;45.520;11.018;2022-11-20T17:24:00;9.30;83.40
31675;DHT22;18276;45.520;11.018;2022-11-20T17:26:30;9.20;83.60
31675;DHT22;18276;45.520;11.018;2022-11-20T17:29:01;9.20;83.60
31675;DHT22;18276;45.520;11.018;2022-11-20T17:31:30;9.20;83.80
31675;DHT22;18276;45.520;11.018;2022-11-20T17:33:58;9.20;83.80
31675;DHT22;18276;45.520;11.018;2022-11-20T17:36:27;9.20;83.90
31675;DHT22;18276;45.520;11.018;2022-11-20T17:38:54;9.10;84.00